sensor_id;sensor_type;location;lat;lon;timestamp;pressure;altitude;pressure_sealevel;temperature;humidity
34065;BME280;20339;49.754;20.158;2023-02-21T00:00:52;95949.97;;;8.59;64.61
34065;BME280;20339;49.754;20.158;2023-02-21T00:03:40;95945.27;;;8.58;64.60
34065;BME280;20339;49.754;20.158;2023-02-21T00:06:29;95940.81;;;8.60;64.51
34065;BME280;20339;49.754;20.158;2023-02-21T00:09:17;95939.79;;;8.62;64.78
34065;BME280;20339;49.754;20.158;2023-02-21T00:12:07;95932.84;;;8.58;64.80
34065;BME280;20339;49.754;20.158;2023-02-21T00:14:55;95941.73;;;8.58;64.86
34065;BME280;20339;49.754;20.158;2023-02-21T00:17:45;95945.50;;;8.56;64.96
34065;BME280;20339;49.754;20.158;2023-02-21T00:20:34;95942.63;;;8.53;65.49
34065;BME280;20339;49.754;20.158;2023-02-21T00:23:23;95938.83;;;8.53;65.51
34065;BME280;20339;49.754;20.158;2023-02-21T00:26:15;95943.14;;;8.50;65.63
34065;BME280;20339;49.754;20.158;2023-02-21T00:29:04;95939.31;;;8.52;65.40
34065;BME280;20339;49.754;20.158;2023-02-21T00:31:53;95932.71;;;8.51;65.63
34065;BME280;20339;49.754;20.158;2023-02-21T00:34:43;95918.41;;;8.51;65.66
34065;BME280;20339;49.754;20.158;2023-02-21T00:37:31;95934.52;;;8.51;65.93
34065;BME280;20339;49.754;20.158;2023-02-21T00:40:20;95928.02;;;8.47;66.03
34065;BME280;20339;49.754;20.158;2023-02-21T00:43:09;95907.63;;;8.51;65.80
34065;BME280;20339;49.754;20.158;2023-02-21T00:45:58;95918.89;;;8.54;65.69
34065;BME280;20339;49.754;20.158;2023-02-21T00:48:47;95918.12;;;8.52;65.62
34065;BME280;20339;49.754;20.158;2023-02-21T00:51:35;95916.36;;;8.49;65.64
34065;BME280;20339;49.754;20.158;2023-02-21T00:54:24;95918.69;;;8.53;65.59
34065;BME280;20339;49.754;20.158;2023-02-21T00:57:14;95923.61;;;8.52;65.44
34065;BME280;20339;49.754;20.158;2023-02-21T01:00:01;95913.75;;;8.51;65.62
34065;BME280;20339;49.754;20.158;2023-02-21T01:02:49;95910.24;;;8.48;65.73
34065;BME280;20339;49.754;20.158;2023-02-21T01:05:38;95913.73;;;8.44;65.93
34065;BME280;20339;49.754;20.158;2023-02-21T01:08:27;95914.23;;;8.41;65.84
34065;BME280;20339;49.754;20.158;2023-02-21T01:11:17;95915.23;;;8.38;66.40
34065;BME280;20339;49.754;20.158;2023-02-21T01:14:06;95921.45;;;8.29;66.46
34065;BME280;20339;49.754;20.158;2023-02-21T01:16:55;95915.36;;;8.26;66.55
34065;BME280;20339;49.754;20.158;2023-02-21T01:19:47;95923.98;;;8.25;66.70
34065;BME280;20339;49.754;20.158;2023-02-21T01:22:36;95921.04;;;8.24;66.82
34065;BME280;20339;49.754;20.158;2023-02-21T01:25:24;95911.64;;;8.23;66.79
34065;BME280;20339;49.754;20.158;2023-02-21T01:28:13;95917.51;;;8.23;66.85
34065;BME280;20339;49.754;20.158;2023-02-21T01:31:02;95915.92;;;8.23;66.92
34065;BME280;20339;49.754;20.158;2023-02-21T01:33:50;95907.80;;;8.22;66.83
34065;BME280;20339;49.754;20.158;2023-02-21T01:36:42;95907.16;;;8.22;66.93
34065;BME280;20339;49.754;20.158;2023-02-21T01:39:30;95910.29;;;8.22;67.11
34065;BME280;20339;49.754;20.158;2023-02-21T01:42:19;95901.23;;;8.19;67.18
34065;BME280;20339;49.754;20.158;2023-02-21T01:45:42;95909.88;;;8.20;67.16
34065;BME280;20339;49.754;20.158;2023-02-21T01:48:31;95902.90;;;8.21;67.10
34065;BME280;20339;49.754;20.158;2023-02-21T01:51:24;95896.83;;;8.21;67.09
34065;BME280;20339;49.754;20.158;2023-02-21T01:54:14;95893.61;;;8.20;67.22
34065;BME280;20339;49.754;20.158;2023-02-21T01:57:03;95904.84;;;8.16;67.61
34065;BME280;20339;49.754;20.158;2023-02-21T01:59:55;95892.48;;;8.13;67.89
34065;BME280;20339;49.754;20.158;2023-02-21T02:02:49;95883.93;;;8.16;67.91
34065;BME280;20339;49.754;20.158;2023-02-21T02:05:40;95876.48;;;8.22;67.73
34065;BME280;20339;49.754;20.158;2023-02-21T02:08:30;95893.89;;;8.24;67.64
34065;BME280;20339;49.754;20.158;2023-02-21T02:11:34;95890.92;;;8.20;67.82
34065;BME280;20339;49.754;20.158;2023-02-21T02:14:44;95868.62;;;8.18;67.93
34065;BME280;20339;49.754;20.158;2023-02-21T02:17:29;95883.88;;;8.22;68.05
34065;BME280;20339;49.754;20.158;2023-02-21T02:20:34;95878.66;;;8.17;68.27
34065;BME280;20339;49.754;20.158;2023-02-21T02:23:38;95867.12;;;8.19;68.38
34065;BME280;20339;49.754;20.158;2023-02-21T02:29:38;95866.38;;;8.19;68.59
34065;BME280;20339;49.754;20.158;2023-02-21T02:32:54;95871.24;;;8.19;68.83
34065;BME280;20339;49.754;20.158;2023-02-21T02:35:31;95868.73;;;8.21;69.09
34065;BME280;20339;49.754;20.158;2023-02-21T02:38:11;95877.50;;;8.21;68.97
34065;BME280;20339;49.754;20.158;2023-02-21T02:40:54;95866.70;;;8.20;69.22
34065;BME280;20339;49.754;20.158;2023-02-21T02:43:31;95870.16;;;8.21;69.50
34065;BME280;20339;49.754;20.158;2023-02-21T02:46:09;95867.40;;;8.22;69.50
34065;BME280;20339;49.754;20.158;2023-02-21T02:48:45;95863.09;;;8.21;69.77
34065;BME280;20339;49.754;20.158;2023-02-21T02:51:18;95864.87;;;8.22;69.95
34065;BME280;20339;49.754;20.158;2023-02-21T02:53:49;95856.08;;;8.24;70.16
34065;BME280;20339;49.754;20.158;2023-02-21T02:56:20;95861.20;;;8.27;70.25
34065;BME280;20339;49.754;20.158;2023-02-21T02:58:58;95864.06;;;8.26;70.34
34065;BME280;20339;49.754;20.158;2023-02-21T03:02:02;95863.27;;;8.24;70.42
34065;BME280;20339;49.754;20.158;2023-02-21T03:04:46;95859.33;;;8.22;70.80
34065;BME280;20339;49.754;20.158;2023-02-21T03:07:30;95865.02;;;8.22;70.96
34065;BME280;20339;49.754;20.158;2023-02-21T03:10:12;95869.46;;;8.22;71.17
34065;BME280;20339;49.754;20.158;2023-02-21T03:12:50;95870.61;;;8.19;71.29
34065;BME280;20339;49.754;20.158;2023-02-21T03:15:30;95867.88;;;8.17;71.55
34065;BME280;20339;49.754;20.158;2023-02-21T03:18:11;95871.98;;;8.18;71.83
34065;BME280;20339;49.754;20.158;2023-02-21T03:20:44;95866.48;;;8.20;71.91
34065;BME280;20339;49.754;20.158;2023-02-21T03:23:18;95855.15;;;8.22;72.08
34065;BME280;20339;49.754;20.158;2023-02-21T03:25:53;95868.46;;;8.25;72.31
34065;BME280;20339;49.754;20.158;2023-02-21T03:28:25;95863.16;;;8.27;72.12
34065;BME280;20339;49.754;20.158;2023-02-21T03:30:56;95864.84;;;8.24;72.24
34065;BME280;20339;49.754;20.158;2023-02-21T03:33:32;95865.27;;;8.20;72.49
34065;BME280;20339;49.754;20.158;2023-02-21T03:36:08;95864.64;;;8.18;72.60
34065;BME280;20339;49.754;20.158;2023-02-21T03:38:39;95851.70;;;8.22;72.66
34065;BME280;20339;49.754;20.158;2023-02-21T03:41:11;95859.55;;;8.25;72.71
34065;BME280;20339;49.754;20.158;2023-02-21T03:43:42;95861.19;;;8.24;72.79
34065;BME280;20339;49.754;20.158;2023-02-21T03:46:13;95862.20;;;8.24;73.12
34065;BME280;20339;49.754;20.158;2023-02-21T03:48:45;95851.73;;;8.25;73.18
34065;BME280;20339;49.754;20.158;2023-02-21T03:51:16;95864.25;;;8.25;73.06
34065;BME280;20339;49.754;20.158;2023-02-21T03:53:47;95868.43;;;8.23;73.06
34065;BME280;20339;49.754;20.158;2023-02-21T03:56:19;95858.46;;;8.23;73.18
34065;BME280;20339;49.754;20.158;2023-02-21T03:58:50;95865.64;;;8.23;73.40
34065;BME280;20339;49.754;20.158;2023-02-21T04:01:21;95855.82;;;8.28;73.35
34065;BME280;20339;49.754;20.158;2023-02-21T04:03:52;95855.75;;;8.30;73.34
34065;BME280;20339;49.754;20.158;2023-02-21T04:06:23;95860.45;;;8.28;73.32
34065;BME280;20339;49.754;20.158;2023-02-21T04:08:54;95869.55;;;8.27;73.31
34065;BME280;20339;49.754;20.158;2023-02-21T04:11:25;95867.43;;;8.24;73.68
34065;BME280;20339;49.754;20.158;2023-02-21T04:13:59;95865.73;;;8.24;73.78
34065;BME280;20339;49.754;20.158;2023-02-21T04:16:30;95860.17;;;8.25;73.85
34065;BME280;20339;49.754;20.158;2023-02-21T04:19:01;95869.20;;;8.26;73.98
34065;BME280;20339;49.754;20.158;2023-02-21T04:21:32;95850.37;;;8.24;74.16
34065;BME280;20339;49.754;20.158;2023-02-21T04:24:04;95854.73;;;8.25;74.34
34065;BME280;20339;49.754;20.158;2023-02-21T04:26:36;95856.64;;;8.25;74.40
34065;BME280;20339;49.754;20.158;2023-02-21T04:29:07;95855.59;;;8.24;74.58
34065;BME280;20339;49.754;20.158;2023-02-21T04:31:38;95858.20;;;8.24;74.61
34065;BME280;20339;49.754;20.158;2023-02-21T04:34:09;95857.77;;;8.23;74.80
34065;BME280;20339;49.754;20.158;2023-02-21T04:36:40;95858.70;;;8.21;74.80
34065;BME280;20339;49.754;20.158;2023-02-21T04:39:12;95858.10;;;8.19;75.06
34065;BME280;20339;49.754;20.158;2023-02-21T04:41:43;95861.95;;;8.20;75.50
34065;BME280;20339;49.754;20.158;2023-02-21T04:44:14;95864.71;;;8.18;75.58
34065;BME280;20339;49.754;20.158;2023-02-21T04:46:46;95853.72;;;8.19;75.77
34065;BME280;20339;49.754;20.158;2023-02-21T04:49:17;95861.83;;;8.20;75.85
34065;BME280;20339;49.754;20.158;2023-02-21T04:51:48;95857.96;;;8.21;75.93
34065;BME280;20339;49.754;20.158;2023-02-21T04:54:19;95869.34;;;8.20;76.11
34065;BME280;20339;49.754;20.158;2023-02-21T04:56:50;95865.34;;;8.16;76.06
34065;BME280;20339;49.754;20.158;2023-02-21T04:59:21;95861.81;;;8.16;76.31
34065;BME280;20339;49.754;20.158;2023-02-21T05:01:52;95859.91;;;8.16;76.39
34065;BME280;20339;49.754;20.158;2023-02-21T05:04:23;95838.36;;;8.18;76.53
34065;BME280;20339;49.754;20.158;2023-02-21T05:06:56;95867.48;;;8.19;76.70
34065;BME280;20339;49.754;20.158;2023-02-21T05:09:28;95879.11;;;8.18;76.86
34065;BME280;20339;49.754;20.158;2023-02-21T05:11:59;95878.92;;;8.14;76.99
34065;BME280;20339;49.754;20.158;2023-02-21T05:14:30;95870.48;;;8.10;77.24
34065;BME280;20339;49.754;20.158;2023-02-21T05:17:03;95875.99;;;8.08;77.62
34065;BME280;20339;49.754;20.158;2023-02-21T05:19:34;95866.44;;;8.09;78.03
34065;BME280;20339;49.754;20.158;2023-02-21T05:22:05;95867.02;;;8.09;78.44
34065;BME280;20339;49.754;20.158;2023-02-21T05:24:41;95881.19;;;8.07;78.38
34065;BME280;20339;49.754;20.158;2023-02-21T05:27:12;95887.66;;;8.03;78.98
34065;BME280;20339;49.754;20.158;2023-02-21T05:29:47;95877.34;;;7.99;79.41
34065;BME280;20339;49.754;20.158;2023-02-21T05:32:21;95889.02;;;7.97;80.00
34065;BME280;20339;49.754;20.158;2023-02-21T05:34:53;95902.77;;;7.92;80.45
34065;BME280;20339;49.754;20.158;2023-02-21T05:37:24;95898.06;;;7.85;80.99
34065;BME280;20339;49.754;20.158;2023-02-21T05:39:55;95893.76;;;7.79;81.78
34065;BME280;20339;49.754;20.158;2023-02-21T05:42:27;95900.02;;;7.73;82.06
34065;BME280;20339;49.754;20.158;2023-02-21T05:44:58;95899.60;;;7.66;82.36
34065;BME280;20339;49.754;20.158;2023-02-21T05:47:29;95885.55;;;7.61;82.60
34065;BME280;20339;49.754;20.158;2023-02-21T05:50:01;95886.77;;;7.62;82.92
34065;BME280;20339;49.754;20.158;2023-02-21T05:52:32;95889.46;;;7.62;83.16
34065;BME280;20339;49.754;20.158;2023-02-21T05:55:04;95888.67;;;7.60;83.58
34065;BME280;20339;49.754;20.158;2023-02-21T05:57:39;95892.34;;;7.57;84.15
34065;BME280;20339;49.754;20.158;2023-02-21T06:00:17;95880.59;;;7.55;84.47
34065;BME280;20339;49.754;20.158;2023-02-21T06:02:48;95884.20;;;7.54;84.60
34065;BME280;20339;49.754;20.158;2023-02-21T06:05:20;95887.29;;;7.55;84.65
34065;BME280;20339;49.754;20.158;2023-02-21T06:07:52;95886.13;;;7.56;84.63
34065;BME280;20339;49.754;20.158;2023-02-21T06:10:25;95897.22;;;7.53;84.81
34065;BME280;20339;49.754;20.158;2023-02-21T06:12:56;95890.98;;;7.49;84.74
34065;BME280;20339;49.754;20.158;2023-02-21T06:15:28;95900.23;;;7.45;85.13
34065;BME280;20339;49.754;20.158;2023-02-21T06:17:59;95904.59;;;7.42;85.41
34065;BME280;20339;49.754;20.158;2023-02-21T06:20:30;95897.95;;;7.39;86.21
34065;BME280;20339;49.754;20.158;2023-02-21T06:23:01;95909.11;;;7.37;86.77
34065;BME280;20339;49.754;20.158;2023-02-21T06:25:32;95919.85;;;7.31;87.29
34065;BME280;20339;49.754;20.158;2023-02-21T06:28:03;95921.98;;;7.27;87.77
34065;BME280;20339;49.754;20.158;2023-02-21T06:30:34;95929.85;;;7.26;88.37
34065;BME280;20339;49.754;20.158;2023-02-21T06:33:05;95925.59;;;7.24;88.89
34065;BME280;20339;49.754;20.158;2023-02-21T06:35:36;95932.15;;;7.22;89.25
34065;BME280;20339;49.754;20.158;2023-02-21T06:38:07;95933.65;;;7.19;90.03
34065;BME280;20339;49.754;20.158;2023-02-21T06:40:41;95932.59;;;7.18;90.48
34065;BME280;20339;49.754;20.158;2023-02-21T06:43:13;95914.03;;;7.19;90.69
34065;BME280;20339;49.754;20.158;2023-02-21T06:45:44;95925.70;;;7.24;91.18
34065;BME280;20339;49.754;20.158;2023-02-21T06:48:16;95950.39;;;7.22;91.27
34065;BME280;20339;49.754;20.158;2023-02-21T06:50:47;95944.34;;;7.15;91.90
34065;BME280;20339;49.754;20.158;2023-02-21T06:53:18;95953.84;;;7.08;92.67
34065;BME280;20339;49.754;20.158;2023-02-21T06:55:50;95962.45;;;7.02;93.43
34065;BME280;20339;49.754;20.158;2023-02-21T06:58:21;95958.20;;;6.99;94.23
34065;BME280;20339;49.754;20.158;2023-02-21T07:00:52;95960.91;;;6.94;94.47
34065;BME280;20339;49.754;20.158;2023-02-21T07:03:23;95962.34;;;6.93;94.91
34065;BME280;20339;49.754;20.158;2023-02-21T07:05:54;95963.64;;;6.95;94.96
34065;BME280;20339;49.754;20.158;2023-02-21T07:08:25;95956.11;;;6.96;95.23
34065;BME280;20339;49.754;20.158;2023-02-21T07:10:57;95971.22;;;6.97;95.43
34065;BME280;20339;49.754;20.158;2023-02-21T07:13:28;95962.73;;;6.98;95.61
34065;BME280;20339;49.754;20.158;2023-02-21T07:15:59;95960.98;;;6.98;95.91
34065;BME280;20339;49.754;20.158;2023-02-21T07:18:30;95958.17;;;6.95;96.10
34065;BME280;20339;49.754;20.158;2023-02-21T07:21:01;95955.75;;;6.95;96.28
34065;BME280;20339;49.754;20.158;2023-02-21T07:23:32;95958.35;;;6.92;96.49
34065;BME280;20339;49.754;20.158;2023-02-21T07:26:03;95962.88;;;6.92;96.62
34065;BME280;20339;49.754;20.158;2023-02-21T07:28:34;95976.20;;;6.94;97.04
34065;BME280;20339;49.754;20.158;2023-02-21T07:31:06;95968.02;;;6.97;97.15
34065;BME280;20339;49.754;20.158;2023-02-21T07:33:39;95966.55;;;7.05;97.14
34065;BME280;20339;49.754;20.158;2023-02-21T07:36:10;95974.21;;;7.12;96.90
34065;BME280;20339;49.754;20.158;2023-02-21T07:38:42;95974.86;;;7.19;96.56
34065;BME280;20339;49.754;20.158;2023-02-21T07:41:14;95975.48;;;7.31;96.12
34065;BME280;20339;49.754;20.158;2023-02-21T07:43:46;95982.52;;;7.44;95.55
34065;BME280;20339;49.754;20.158;2023-02-21T07:46:17;95966.04;;;7.50;94.99
34065;BME280;20339;49.754;20.158;2023-02-21T07:48:48;95965.77;;;7.65;93.85
34065;BME280;20339;49.754;20.158;2023-02-21T07:51:19;95959.66;;;7.86;93.43
34065;BME280;20339;49.754;20.158;2023-02-21T07:53:51;95961.40;;;7.97;91.83
34065;BME280;20339;49.754;20.158;2023-02-21T07:56:22;95965.71;;;7.94;90.96
34065;BME280;20339;49.754;20.158;2023-02-21T07:58:53;95975.82;;;7.96;91.08
34065;BME280;20339;49.754;20.158;2023-02-21T08:01:25;95983.73;;;7.93;90.65
34065;BME280;20339;49.754;20.158;2023-02-21T08:03:56;95972.89;;;7.94;90.01
34065;BME280;20339;49.754;20.158;2023-02-21T08:06:27;95977.42;;;8.07;89.13
34065;BME280;20339;49.754;20.158;2023-02-21T08:08:58;95973.21;;;8.07;88.06
34065;BME280;20339;49.754;20.158;2023-02-21T08:11:29;95966.53;;;8.09;86.37
34065;BME280;20339;49.754;20.158;2023-02-21T08:14:01;95970.02;;;8.28;86.01
34065;BME280;20339;49.754;20.158;2023-02-21T08:16:32;95979.63;;;8.47;86.10
34065;BME280;20339;49.754;20.158;2023-02-21T08:19:03;95989.23;;;8.43;85.70
34065;BME280;20339;49.754;20.158;2023-02-21T08:21:34;95983.86;;;8.33;84.90
34065;BME280;20339;49.754;20.158;2023-02-21T08:24:05;95987.86;;;8.26;84.94
34065;BME280;20339;49.754;20.158;2023-02-21T08:26:37;95966.69;;;8.21;85.14
34065;BME280;20339;49.754;20.158;2023-02-21T08:29:09;95969.81;;;8.21;84.46
34065;BME280;20339;49.754;20.158;2023-02-21T08:31:40;95959.91;;;8.23;83.55
34065;BME280;20339;49.754;20.158;2023-02-21T08:34:13;95978.60;;;8.27;83.98
34065;BME280;20339;49.754;20.158;2023-02-21T08:36:44;95999.88;;;8.29;84.05
34065;BME280;20339;49.754;20.158;2023-02-21T08:39:15;96001.45;;;8.28;83.84
34065;BME280;20339;49.754;20.158;2023-02-21T08:41:47;96010.23;;;8.33;83.90
34065;BME280;20339;49.754;20.158;2023-02-21T08:44:19;95945.92;;;8.46;82.22
34065;BME280;20339;49.754;20.158;2023-02-21T08:46:51;96005.83;;;8.63;81.36
34065;BME280;20339;49.754;20.158;2023-02-21T08:49:22;96011.59;;;8.63;81.27
34065;BME280;20339;49.754;20.158;2023-02-21T08:51:53;95992.58;;;8.95;80.26
34065;BME280;20339;49.754;20.158;2023-02-21T08:54:24;96001.73;;;9.16;78.82
34065;BME280;20339;49.754;20.158;2023-02-21T08:56:55;96017.80;;;8.99;78.39
34065;BME280;20339;49.754;20.158;2023-02-21T08:59:27;96034.70;;;8.81;78.20
34065;BME280;20339;49.754;20.158;2023-02-21T09:02:02;96035.52;;;8.68;78.84
34065;BME280;20339;49.754;20.158;2023-02-21T09:04:35;96017.55;;;8.57;78.70
34065;BME280;20339;49.754;20.158;2023-02-21T09:07:07;96038.48;;;8.52;78.28
34065;BME280;20339;49.754;20.158;2023-02-21T09:09:39;96035.20;;;8.52;79.23
34065;BME280;20339;49.754;20.158;2023-02-21T09:12:10;96031.02;;;8.53;79.17
34065;BME280;20339;49.754;20.158;2023-02-21T09:14:42;96024.02;;;8.45;79.62
34065;BME280;20339;49.754;20.158;2023-02-21T09:17:14;96033.34;;;8.37;80.06
34065;BME280;20339;49.754;20.158;2023-02-21T09:19:45;96027.44;;;8.36;79.95
34065;BME280;20339;49.754;20.158;2023-02-21T09:22:16;96032.52;;;8.38;79.72
34065;BME280;20339;49.754;20.158;2023-02-21T09:24:47;96044.79;;;8.38;79.65
34065;BME280;20339;49.754;20.158;2023-02-21T09:27:18;96045.98;;;8.39;79.74
34065;BME280;20339;49.754;20.158;2023-02-21T09:29:49;96036.27;;;8.39;79.89
34065;BME280;20339;49.754;20.158;2023-02-21T09:32:20;96036.23;;;8.42;80.35
34065;BME280;20339;49.754;20.158;2023-02-21T09:34:52;96039.23;;;8.47;80.74
34065;BME280;20339;49.754;20.158;2023-02-21T09:37:23;96047.41;;;8.40;81.48
34065;BME280;20339;49.754;20.158;2023-02-21T09:39:54;96057.48;;;8.36;81.60
34065;BME280;20339;49.754;20.158;2023-02-21T09:42:29;96054.80;;;8.35;81.57
34065;BME280;20339;49.754;20.158;2023-02-21T09:45:01;96041.65;;;8.29;82.44
34065;BME280;20339;49.754;20.158;2023-02-21T09:47:34;96041.45;;;8.24;82.78
34065;BME280;20339;49.754;20.158;2023-02-21T09:50:12;96064.34;;;8.21;83.76
34065;BME280;20339;49.754;20.158;2023-02-21T09:52:44;96049.88;;;8.25;83.49
34065;BME280;20339;49.754;20.158;2023-02-21T09:55:28;96057.42;;;8.33;82.66
34065;BME280;20339;49.754;20.158;2023-02-21T09:58:01;96061.21;;;8.38;82.15
34065;BME280;20339;49.754;20.158;2023-02-21T10:00:36;96071.50;;;8.30;82.89
34065;BME280;20339;49.754;20.158;2023-02-21T10:03:37;96064.36;;;8.32;83.30
34065;BME280;20339;49.754;20.158;2023-02-21T10:06:17;96067.23;;;8.29;82.59
34065;BME280;20339;49.754;20.158;2023-02-21T10:08:56;96060.83;;;8.28;82.75
34065;BME280;20339;49.754;20.158;2023-02-21T10:11:36;96071.76;;;8.28;82.87
34065;BME280;20339;49.754;20.158;2023-02-21T10:14:25;96065.42;;;8.28;83.27
34065;BME280;20339;49.754;20.158;2023-02-21T10:17:03;96080.08;;;8.25;82.90
34065;BME280;20339;49.754;20.158;2023-02-21T10:19:43;96083.58;;;8.24;82.87
34065;BME280;20339;49.754;20.158;2023-02-21T10:22:20;96063.27;;;8.22;82.48
34065;BME280;20339;49.754;20.158;2023-02-21T10:24:52;96078.69;;;8.30;82.42
34065;BME280;20339;49.754;20.158;2023-02-21T10:27:26;96066.68;;;8.47;81.90
34065;BME280;20339;49.754;20.158;2023-02-21T10:30:03;96089.85;;;8.70;81.47
34065;BME280;20339;49.754;20.158;2023-02-21T10:32:38;96084.15;;;8.89;79.70
34065;BME280;20339;49.754;20.158;2023-02-21T10:35:09;96064.83;;;9.11;78.10
34065;BME280;20339;49.754;20.158;2023-02-21T10:37:42;96070.52;;;9.05;75.95
34065;BME280;20339;49.754;20.158;2023-02-21T10:40:24;96095.19;;;8.91;77.15
34065;BME280;20339;49.754;20.158;2023-02-21T10:43:02;96091.48;;;8.63;78.21
34065;BME280;20339;49.754;20.158;2023-02-21T10:45:39;96103.20;;;8.40;79.94
34065;BME280;20339;49.754;20.158;2023-02-21T10:48:12;96100.17;;;8.35;81.40
34065;BME280;20339;49.754;20.158;2023-02-21T10:50:50;96108.92;;;8.38;82.26
34065;BME280;20339;49.754;20.158;2023-02-21T10:53:28;96105.40;;;8.42;82.92
34065;BME280;20339;49.754;20.158;2023-02-21T10:56:26;96101.85;;;8.74;83.19
34065;BME280;20339;49.754;20.158;2023-02-21T10:59:00;96098.46;;;9.20;83.48
34065;BME280;20339;49.754;20.158;2023-02-21T11:01:40;96080.13;;;9.47;81.17
34065;BME280;20339;49.754;20.158;2023-02-21T11:04:29;96085.46;;;9.38;80.27
34065;BME280;20339;49.754;20.158;2023-02-21T11:07:05;96093.30;;;9.24;80.21
34065;BME280;20339;49.754;20.158;2023-02-21T11:09:39;96090.26;;;9.03;80.44
34065;BME280;20339;49.754;20.158;2023-02-21T11:12:22;96083.34;;;8.97;81.16
34065;BME280;20339;49.754;20.158;2023-02-21T11:15:19;96082.44;;;9.07;81.51
34065;BME280;20339;49.754;20.158;2023-02-21T11:18:03;96069.25;;;8.98;80.81
34065;BME280;20339;49.754;20.158;2023-02-21T11:20:35;96080.58;;;8.82;81.24
34065;BME280;20339;49.754;20.158;2023-02-21T11:23:18;96040.52;;;8.80;80.40
34065;BME280;20339;49.754;20.158;2023-02-21T11:25:53;96076.71;;;9.04;79.95
34065;BME280;20339;49.754;20.158;2023-02-21T11:28:26;96072.48;;;9.27;79.79
34065;BME280;20339;49.754;20.158;2023-02-21T11:31:14;96059.55;;;9.24;78.49
34065;BME280;20339;49.754;20.158;2023-02-21T11:33:53;96074.63;;;9.15;79.31
34065;BME280;20339;49.754;20.158;2023-02-21T11:36:30;96076.16;;;9.09;78.87
34065;BME280;20339;49.754;20.158;2023-02-21T11:39:06;96073.26;;;9.00;78.49
34065;BME280;20339;49.754;20.158;2023-02-21T11:41:47;96086.75;;;8.94;78.36
34065;BME280;20339;49.754;20.158;2023-02-21T11:44:32;96079.30;;;8.93;78.16
34065;BME280;20339;49.754;20.158;2023-02-21T11:47:11;96080.45;;;9.00;78.08
34065;BME280;20339;49.754;20.158;2023-02-21T11:49:50;96081.05;;;9.08;77.71
34065;BME280;20339;49.754;20.158;2023-02-21T11:52:27;96096.90;;;9.15;77.99
34065;BME280;20339;49.754;20.158;2023-02-21T11:55:02;96072.39;;;9.13;77.09
34065;BME280;20339;49.754;20.158;2023-02-21T11:57:40;96079.80;;;8.97;78.13
34065;BME280;20339;49.754;20.158;2023-02-21T12:00:19;96089.67;;;8.87;79.67
34065;BME280;20339;49.754;20.158;2023-02-21T12:03:18;96083.17;;;8.86;79.97
34065;BME280;20339;49.754;20.158;2023-02-21T12:05:58;96086.15;;;8.84;80.39
34065;BME280;20339;49.754;20.158;2023-02-21T12:08:44;96085.27;;;8.76;80.26
34065;BME280;20339;49.754;20.158;2023-02-21T12:11:33;96071.91;;;8.65;80.34
34065;BME280;20339;49.754;20.158;2023-02-21T12:17:26;96091.42;;;8.47;82.05
34065;BME280;20339;49.754;20.158;2023-02-21T12:20:14;96104.88;;;8.53;82.83
34065;BME280;20339;49.754;20.158;2023-02-21T12:23:03;96086.89;;;8.67;81.40
34065;BME280;20339;49.754;20.158;2023-02-21T12:25:50;96082.51;;;8.75;80.70
34065;BME280;20339;49.754;20.158;2023-02-21T12:28:34;96083.45;;;8.76;81.01
34065;BME280;20339;49.754;20.158;2023-02-21T12:31:21;96078.55;;;8.74;81.68
34065;BME280;20339;49.754;20.158;2023-02-21T12:34:04;96083.45;;;8.68;82.44
34065;BME280;20339;49.754;20.158;2023-02-21T12:36:48;96083.53;;;8.60;83.40
34065;BME280;20339;49.754;20.158;2023-02-21T12:39:37;96086.30;;;8.45;84.58
34065;BME280;20339;49.754;20.158;2023-02-21T12:42:23;96084.92;;;8.27;85.79
34065;BME280;20339;49.754;20.158;2023-02-21T12:45:12;96078.89;;;8.15;87.04
34065;BME280;20339;49.754;20.158;2023-02-21T12:47:52;96056.88;;;8.14;86.96
34065;BME280;20339;49.754;20.158;2023-02-21T12:50:28;96070.92;;;8.16;87.24
34065;BME280;20339;49.754;20.158;2023-02-21T12:53:04;96076.45;;;8.24;87.20
34065;BME280;20339;49.754;20.158;2023-02-21T12:55:41;96068.33;;;8.28;86.80
34065;BME280;20339;49.754;20.158;2023-02-21T12:58:18;96083.62;;;8.43;85.98
34065;BME280;20339;49.754;20.158;2023-02-21T13:00:54;96048.00;;;8.57;83.87
34065;BME280;20339;49.754;20.158;2023-02-21T13:03:42;96073.33;;;8.66;82.06
34065;BME280;20339;49.754;20.158;2023-02-21T13:06:20;96090.68;;;8.69;81.45
34065;BME280;20339;49.754;20.158;2023-02-21T13:09:08;96071.58;;;8.67;81.66
34065;BME280;20339;49.754;20.158;2023-02-21T13:11:45;96084.62;;;8.79;82.48
34065;BME280;20339;49.754;20.158;2023-02-21T13:14:24;96076.89;;;9.21;81.81
34065;BME280;20339;49.754;20.158;2023-02-21T13:16:56;96073.17;;;9.27;78.57
34065;BME280;20339;49.754;20.158;2023-02-21T13:19:33;96088.59;;;9.16;77.06
34065;BME280;20339;49.754;20.158;2023-02-21T13:22:24;96099.77;;;9.12;76.83
34065;BME280;20339;49.754;20.158;2023-02-21T13:25:03;96089.15;;;9.18;75.96
34065;BME280;20339;49.754;20.158;2023-02-21T13:27:56;96098.27;;;9.33;75.98
34065;BME280;20339;49.754;20.158;2023-02-21T13:30:40;96094.02;;;9.45;75.72
34065;BME280;20339;49.754;20.158;2023-02-21T13:33:26;96122.23;;;9.35;74.49
34065;BME280;20339;49.754;20.158;2023-02-21T13:36:00;96108.04;;;9.26;73.79
34065;BME280;20339;49.754;20.158;2023-02-21T13:38:32;96115.83;;;9.20;72.72
34065;BME280;20339;49.754;20.158;2023-02-21T13:41:09;96105.13;;;9.18;72.60
34065;BME280;20339;49.754;20.158;2023-02-21T13:43:49;96104.75;;;9.11;72.75
34065;BME280;20339;49.754;20.158;2023-02-21T13:47:04;96111.71;;;9.04;73.10
34065;BME280;20339;49.754;20.158;2023-02-21T13:49:43;96122.16;;;9.02;74.46
34065;BME280;20339;49.754;20.158;2023-02-21T13:52:34;96117.89;;;9.02;75.11
34065;BME280;20339;49.754;20.158;2023-02-21T13:55:20;96123.64;;;9.02;75.48
34065;BME280;20339;49.754;20.158;2023-02-21T13:58:30;96114.81;;;8.95;75.26
34065;BME280;20339;49.754;20.158;2023-02-21T14:07:12;96124.27;;;8.72;75.99
34065;BME280;20339;49.754;20.158;2023-02-21T14:09:46;96128.42;;;8.63;76.82